sensor_id;sensor_type;location;lat;lon;timestamp;temperature;humidity
28189;DHT22;15471;51.166;4.470;2022-07-23T00:00:12;15.60;99.90
28189;DHT22;15471;51.166;4.470;2022-07-23T00:02:37;15.60;99.90
28189;DHT22;15471;51.166;4.470;2022-07-23T00:05:03;15.60;99.90
28189;DHT22;15471;51.166;4.470;2022-07-23T00:07:29;15.60;99.90
28189;DHT22;15471;51.166;4.470;2022-07-23T00:09:55;15.60;99.90
28189;DHT22;15471;51.166;4.470;2022-07-23T00:12:21;15.50;99.90
28189;DHT22;15471;51.166;4.470;2022-07-23T00:14:47;15.50;99.90
28189;DHT22;15471;51.166;4.470;2022-07-23T00:17:13;15.50;99.90
28189;DHT22;15471;51.166;4.470;2022-07-23T00:19:38;15.60;99.90
28189;DHT22;15471;51.166;4.470;2022-07-23T00:22:04;15.50;99.90
28189;DHT22;15471;51.166;4.470;2022-07-23T00:24:30;15.40;99.90
28189;DHT22;15471;51.166;4.470;2022-07-23T00:26:55;15.40;99.90
28189;DHT22;15471;51.166;4.470;2022-07-23T00:29:21;15.50;99.90
28189;DHT22;15471;51.166;4.470;2022-07-23T00:31:47;15.40;99.90
28189;DHT22;15471;51.166;4.470;2022-07-23T00:34:13;15.40;99.90
28189;DHT22;15471;51.166;4.470;2022-07-23T00:36:39;15.30;99.90
28189;DHT22;15471;51.166;4.470;2022-07-23T00:39:05;15.20;99.90
28189;DHT22;15471;51.166;4.470;2022-07-23T00:41:30;15.20;99.90
28189;DHT22;15471;51.166;4.470;2022-07-23T00:44:21;15.10;99.90
28189;DHT22;15471;51.166;4.470;2022-07-23T00:46:54;15.10;99.90
28189;DHT22;15471;51.166;4.470;2022-07-23T00:49:30;15.10;99.90
28189;DHT22;15471;51.166;4.470;2022-07-23T00:51:57;15.10;99.90
28189;DHT22;15471;51.166;4.470;2022-07-23T00:54:24;15.20;99.90
28189;DHT22;15471;51.166;4.470;2022-07-23T00:56:51;15.20;99.90
28189;DHT22;15471;51.166;4.470;2022-07-23T00:59:17;15.30;99.90
28189;DHT22;15471;51.166;4.470;2022-07-23T01:01:42;15.30;99.90
28189;DHT22;15471;51.166;4.470;2022-07-23T01:04:10;15.40;99.90
28189;DHT22;15471;51.166;4.470;2022-07-23T01:06:38;15.40;99.90
28189;DHT22;15471;51.166;4.470;2022-07-23T01:09:05;15.40;99.90
28189;DHT22;15471;51.166;4.470;2022-07-23T01:11:36;15.40;99.90
28189;DHT22;15471;51.166;4.470;2022-07-23T01:14:10;15.40;99.90
28189;DHT22;15471;51.166;4.470;2022-07-23T01:16:36;15.30;99.90
28189;DHT22;15471;51.166;4.470;2022-07-23T01:19:02;15.30;99.90
28189;DHT22;15471;51.166;4.470;2022-07-23T01:21:30;15.30;99.90
28189;DHT22;15471;51.166;4.470;2022-07-23T01:23:56;15.20;99.90
28189;DHT22;15471;51.166;4.470;2022-07-23T01:26:23;15.20;99.90
28189;DHT22;15471;51.166;4.470;2022-07-23T01:28:49;15.10;99.90
28189;DHT22;15471;51.166;4.470;2022-07-23T01:31:14;15.00;99.90
28189;DHT22;15471;51.166;4.470;2022-07-23T01:33:40;15.00;99.90
28189;DHT22;15471;51.166;4.470;2022-07-23T01:36:07;14.90;99.90
28189;DHT22;15471;51.166;4.470;2022-07-23T01:38:32;14.90;99.90
28189;DHT22;15471;51.166;4.470;2022-07-23T01:40:58;15.00;99.90
28189;DHT22;15471;51.166;4.470;2022-07-23T01:43:29;15.00;99.90
28189;DHT22;15471;51.166;4.470;2022-07-23T01:45:55;15.00;99.90
28189;DHT22;15471;51.166;4.470;2022-07-23T01:48:24;14.90;99.90
28189;DHT22;15471;51.166;4.470;2022-07-23T01:51:12;14.90;99.90
28189;DHT22;15471;51.166;4.470;2022-07-23T01:53:42;14.90;99.90
28189;DHT22;15471;51.166;4.470;2022-07-23T01:56:08;15.00;99.90
28189;DHT22;15471;51.166;4.470;2022-07-23T01:58:34;15.10;99.90
28189;DHT22;15471;51.166;4.470;2022-07-23T02:01:01;15.20;99.90
28189;DHT22;15471;51.166;4.470;2022-07-23T02:03:27;15.20;99.90
28189;DHT22;15471;51.166;4.470;2022-07-23T02:05:53;15.20;99.90
28189;DHT22;15471;51.166;4.470;2022-07-23T02:08:19;15.10;99.90
28189;DHT22;15471;51.166;4.470;2022-07-23T02:10:45;15.00;99.90
28189;DHT22;15471;51.166;4.470;2022-07-23T02:13:11;14.90;99.90
28189;DHT22;15471;51.166;4.470;2022-07-23T02:15:37;14.80;99.90
28189;DHT22;15471;51.166;4.470;2022-07-23T02:18:03;14.80;99.90
28189;DHT22;15471;51.166;4.470;2022-07-23T02:20:30;14.90;99.90
28189;DHT22;15471;51.166;4.470;2022-07-23T02:22:56;14.90;99.90
28189;DHT22;15471;51.166;4.470;2022-07-23T02:25:22;14.90;99.90
28189;DHT22;15471;51.166;4.470;2022-07-23T02:27:48;14.80;99.90
28189;DHT22;15471;51.166;4.470;2022-07-23T02:30:13;14.80;99.90
28189;DHT22;15471;51.166;4.470;2022-07-23T02:32:39;14.70;99.90
28189;DHT22;15471;51.166;4.470;2022-07-23T02:35:09;14.70;99.90
28189;DHT22;15471;51.166;4.470;2022-07-23T02:37:35;14.70;99.90
28189;DHT22;15471;51.166;4.470;2022-07-23T02:40:00;14.60;99.90
28189;DHT22;15471;51.166;4.470;2022-07-23T02:42:26;14.50;99.90
28189;DHT22;15471;51.166;4.470;2022-07-23T02:44:52;14.40;99.90
28189;DHT22;15471;51.166;4.470;2022-07-23T02:47:18;14.40;99.90
28189;DHT22;15471;51.166;4.470;2022-07-23T02:49:44;14.40;99.90
28189;DHT22;15471;51.166;4.470;2022-07-23T02:52:10;14.40;99.90
28189;DHT22;15471;51.166;4.470;2022-07-23T02:54:37;14.30;99.90
28189;DHT22;15471;51.166;4.470;2022-07-23T02:57:03;14.40;99.90
28189;DHT22;15471;51.166;4.470;2022-07-23T02:59:30;14.40;99.90
28189;DHT22;15471;51.166;4.470;2022-07-23T03:01:56;14.40;99.90
28189;DHT22;15471;51.166;4.470;2022-07-23T03:04:21;14.40;99.90
28189;DHT22;15471;51.166;4.470;2022-07-23T03:06:47;14.50;99.90
28189;DHT22;15471;51.166;4.470;2022-07-23T03:09:14;14.50;99.90
28189;DHT22;15471;51.166;4.470;2022-07-23T03:11:40;14.50;99.90
28189;DHT22;15471;51.166;4.470;2022-07-23T03:14:06;14.50;99.90
28189;DHT22;15471;51.166;4.470;2022-07-23T03:16:34;14.50;99.90
28189;DHT22;15471;51.166;4.470;2022-07-23T03:19:00;14.40;99.90
28189;DHT22;15471;51.166;4.470;2022-07-23T03:21:26;14.40;99.90
28189;DHT22;15471;51.166;4.470;2022-07-23T03:23:52;14.40;99.90
28189;DHT22;15471;51.166;4.470;2022-07-23T03:26:18;14.40;99.90
28189;DHT22;15471;51.166;4.470;2022-07-23T03:28:44;14.30;99.90
28189;DHT22;15471;51.166;4.470;2022-07-23T03:31:10;14.30;99.90
28189;DHT22;15471;51.166;4.470;2022-07-23T03:33:37;14.40;99.90
28189;DHT22;15471;51.166;4.470;2022-07-23T03:36:03;14.30;99.90
28189;DHT22;15471;51.166;4.470;2022-07-23T03:38:32;14.20;99.90
28189;DHT22;15471;51.166;4.470;2022-07-23T03:40:57;14.20;99.90
28189;DHT22;15471;51.166;4.470;2022-07-23T03:43:23;14.20;99.90
28189;DHT22;15471;51.166;4.470;2022-07-23T03:45:51;14.20;99.90
28189;DHT22;15471;51.166;4.470;2022-07-23T03:48:17;14.20;99.90
28189;DHT22;15471;51.166;4.470;2022-07-23T03:50:44;14.20;99.90
28189;DHT22;15471;51.166;4.470;2022-07-23T03:53:10;14.30;99.90
28189;DHT22;15471;51.166;4.470;2022-07-23T03:55:35;14.40;99.90
28189;DHT22;15471;51.166;4.470;2022-07-23T03:58:02;14.40;99.90
28189;DHT22;15471;51.166;4.470;2022-07-23T04:00:28;14.30;99.90
28189;DHT22;15471;51.166;4.470;2022-07-23T04:02:54;14.30;99.90
28189;DHT22;15471;51.166;4.470;2022-07-23T04:05:19;14.20;99.90
28189;DHT22;15471;51.166;4.470;2022-07-23T04:07:50;14.20;99.90
28189;DHT22;15471;51.166;4.470;2022-07-23T04:10:16;14.20;99.90
28189;DHT22;15471;51.166;4.470;2022-07-23T04:12:42;14.20;99.90
28189;DHT22;15471;51.166;4.470;2022-07-23T04:15:08;14.10;99.90
28189;DHT22;15471;51.166;4.470;2022-07-23T04:17:35;14.20;99.90
28189;DHT22;15471;51.166;4.470;2022-07-23T04:20:01;14.20;99.90
28189;DHT22;15471;51.166;4.470;2022-07-23T04:22:33;14.20;99.90
28189;DHT22;15471;51.166;4.470;2022-07-23T04:24:59;14.10;99.90
28189;DHT22;15471;51.166;4.470;2022-07-23T04:27:25;14.10;99.90
28189;DHT22;15471;51.166;4.470;2022-07-23T04:29:50;14.00;99.90
28189;DHT22;15471;51.166;4.470;2022-07-23T04:32:16;14.00;99.90
28189;DHT22;15471;51.166;4.470;2022-07-23T04:34:42;14.00;99.90
28189;DHT22;15471;51.166;4.470;2022-07-23T04:37:08;14.00;99.90
28189;DHT22;15471;51.166;4.470;2022-07-23T04:39:35;14.00;99.90
28189;DHT22;15471;51.166;4.470;2022-07-23T04:42:01;14.10;99.90
28189;DHT22;15471;51.166;4.470;2022-07-23T04:44:29;14.20;99.90
28189;DHT22;15471;51.166;4.470;2022-07-23T04:46:55;14.20;99.90
28189;DHT22;15471;51.166;4.470;2022-07-23T04:49:22;14.20;99.90
28189;DHT22;15471;51.166;4.470;2022-07-23T04:51:48;14.20;99.90
28189;DHT22;15471;51.166;4.470;2022-07-23T04:54:14;14.30;99.90
28189;DHT22;15471;51.166;4.470;2022-07-23T04:56:40;14.40;99.90
28189;DHT22;15471;51.166;4.470;2022-07-23T04:59:05;14.40;99.90
28189;DHT22;15471;51.166;4.470;2022-07-23T05:01:31;14.40;99.90
28189;DHT22;15471;51.166;4.470;2022-07-23T05:03:57;14.50;99.90
28189;DHT22;15471;51.166;4.470;2022-07-23T05:06:26;14.60;99.90
28189;DHT22;15471;51.166;4.470;2022-07-23T05:08:52;14.80;99.90
28189;DHT22;15471;51.166;4.470;2022-07-23T05:11:18;14.90;99.90
28189;DHT22;15471;51.166;4.470;2022-07-23T05:13:44;15.00;99.90
28189;DHT22;15471;51.166;4.470;2022-07-23T05:16:10;14.90;99.90
28189;DHT22;15471;51.166;4.470;2022-07-23T05:18:36;15.00;99.90
28189;DHT22;15471;51.166;4.470;2022-07-23T05:21:02;15.00;99.90
28189;DHT22;15471;51.166;4.470;2022-07-23T05:23:28;14.90;99.90
28189;DHT22;15471;51.166;4.470;2022-07-23T05:25:54;15.00;99.90
28189;DHT22;15471;51.166;4.470;2022-07-23T05:28:20;15.00;99.90
28189;DHT22;15471;51.166;4.470;2022-07-23T05:30:46;15.10;99.90
28189;DHT22;15471;51.166;4.470;2022-07-23T05:33:17;15.20;99.90
28189;DHT22;15471;51.166;4.470;2022-07-23T05:35:43;15.40;99.90
28189;DHT22;15471;51.166;4.470;2022-07-23T05:38:21;15.60;99.90
28189;DHT22;15471;51.166;4.470;2022-07-23T05:40:47;15.60;99.90
28189;DHT22;15471;51.166;4.470;2022-07-23T05:43:13;15.80;99.90
28189;DHT22;15471;51.166;4.470;2022-07-23T05:45:39;15.90;99.90
28189;DHT22;15471;51.166;4.470;2022-07-23T05:48:04;16.10;99.90
28189;DHT22;15471;51.166;4.470;2022-07-23T05:50:35;16.10;99.90
28189;DHT22;15471;51.166;4.470;2022-07-23T05:53:13;16.20;99.90
28189;DHT22;15471;51.166;4.470;2022-07-23T05:55:57;16.30;99.90
28189;DHT22;15471;51.166;4.470;2022-07-23T05:58:23;16.50;99.90
28189;DHT22;15471;51.166;4.470;2022-07-23T06:00:49;16.50;99.90
28189;DHT22;15471;51.166;4.470;2022-07-23T06:03:15;16.50;99.90
28189;DHT22;15471;51.166;4.470;2022-07-23T06:05:41;16.60;99.90
28189;DHT22;15471;51.166;4.470;2022-07-23T06:08:08;16.70;99.90
28189;DHT22;15471;51.166;4.470;2022-07-23T06:10:34;16.70;99.90
28189;DHT22;15471;51.166;4.470;2022-07-23T06:13:00;16.80;99.90
28189;DHT22;15471;51.166;4.470;2022-07-23T06:15:25;16.90;99.90
28189;DHT22;15471;51.166;4.470;2022-07-23T06:17:51;16.90;99.90
28189;DHT22;15471;51.166;4.470;2022-07-23T06:20:17;17.00;99.90
28189;DHT22;15471;51.166;4.470;2022-07-23T06:22:43;17.00;99.90
28189;DHT22;15471;51.166;4.470;2022-07-23T06:25:10;17.10;99.90
28189;DHT22;15471;51.166;4.470;2022-07-23T06:27:36;17.20;99.90
28189;DHT22;15471;51.166;4.470;2022-07-23T06:30:02;17.30;99.90
28189;DHT22;15471;51.166;4.470;2022-07-23T06:32:28;17.30;99.90
28189;DHT22;15471;51.166;4.470;2022-07-23T06:34:54;17.30;99.90
28189;DHT22;15471;51.166;4.470;2022-07-23T06:37:20;17.30;99.90
28189;DHT22;15471;51.166;4.470;2022-07-23T06:39:46;17.30;99.90
28189;DHT22;15471;51.166;4.470;2022-07-23T06:42:12;17.60;99.90
28189;DHT22;15471;51.166;4.470;2022-07-23T06:44:42;17.70;99.90
28189;DHT22;15471;51.166;4.470;2022-07-23T06:47:08;17.60;99.90
28189;DHT22;15471;51.166;4.470;2022-07-23T06:49:35;17.50;99.90
28189;DHT22;15471;51.166;4.470;2022-07-23T06:52:00;17.50;99.90
28189;DHT22;15471;51.166;4.470;2022-07-23T06:54:26;17.60;99.90
28189;DHT22;15471;51.166;4.470;2022-07-23T06:56:52;17.70;99.90
28189;DHT22;15471;51.166;4.470;2022-07-23T06:59:17;17.90;99.90
28189;DHT22;15471;51.166;4.470;2022-07-23T07:01:43;18.00;99.90
28189;DHT22;15471;51.166;4.470;2022-07-23T07:04:09;17.90;99.90
28189;DHT22;15471;51.166;4.470;2022-07-23T07:06:35;17.80;99.90
28189;DHT22;15471;51.166;4.470;2022-07-23T07:09:00;18.00;99.90
28189;DHT22;15471;51.166;4.470;2022-07-23T07:11:26;18.20;99.90
28189;DHT22;15471;51.166;4.470;2022-07-23T07:13:52;18.30;99.90
28189;DHT22;15471;51.166;4.470;2022-07-23T07:16:18;18.20;99.90
28189;DHT22;15471;51.166;4.470;2022-07-23T07:18:44;18.30;99.90
28189;DHT22;15471;51.166;4.470;2022-07-23T07:21:10;18.40;99.90
28189;DHT22;15471;51.166;4.470;2022-07-23T07:23:36;18.50;99.90
28189;DHT22;15471;51.166;4.470;2022-07-23T07:26:01;18.60;99.90
28189;DHT22;15471;51.166;4.470;2022-07-23T07:28:27;18.70;99.90
28189;DHT22;15471;51.166;4.470;2022-07-23T07:30:53;18.90;99.90
28189;DHT22;15471;51.166;4.470;2022-07-23T07:33:19;19.00;99.90
28189;DHT22;15471;51.166;4.470;2022-07-23T07:35:46;19.20;99.90
28189;DHT22;15471;51.166;4.470;2022-07-23T07:38:12;19.30;99.90
28189;DHT22;15471;51.166;4.470;2022-07-23T07:40:38;19.50;99.90
28189;DHT22;15471;51.166;4.470;2022-07-23T07:43:03;19.60;99.90
28189;DHT22;15471;51.166;4.470;2022-07-23T07:45:30;19.60;99.90
28189;DHT22;15471;51.166;4.470;2022-07-23T07:47:55;19.70;99.90
28189;DHT22;15471;51.166;4.470;2022-07-23T07:50:22;19.80;99.90
28189;DHT22;15471;51.166;4.470;2022-07-23T07:52:48;19.90;99.90
28189;DHT22;15471;51.166;4.470;2022-07-23T07:55:13;20.00;99.90
28189;DHT22;15471;51.166;4.470;2022-07-23T07:57:39;20.20;99.90
28189;DHT22;15471;51.166;4.470;2022-07-23T08:00:07;20.20;99.90
28189;DHT22;15471;51.166;4.470;2022-07-23T08:02:47;20.30;99.90
28189;DHT22;15471;51.166;4.470;2022-07-23T08:05:14;20.20;99.90
28189;DHT22;15471;51.166;4.470;2022-07-23T08:07:43;20.30;99.90
28189;DHT22;15471;51.166;4.470;2022-07-23T08:10:10;20.40;99.90
28189;DHT22;15471;51.166;4.470;2022-07-23T08:12:46;20.70;99.90
28189;DHT22;15471;51.166;4.470;2022-07-23T08:15:20;20.80;99.90
28189;DHT22;15471;51.166;4.470;2022-07-23T08:17:47;20.70;99.90
28189;DHT22;15471;51.166;4.470;2022-07-23T08:20:16;20.30;99.90
28189;DHT22;15471;51.166;4.470;2022-07-23T08:22:53;20.10;99.90
28189;DHT22;15471;51.166;4.470;2022-07-23T08:25:21;20.10;99.90
28189;DHT22;15471;51.166;4.470;2022-07-23T08:27:47;20.30;99.90
28189;DHT22;15471;51.166;4.470;2022-07-23T08:30:15;20.40;99.90
28189;DHT22;15471;51.166;4.470;2022-07-23T08:37:57;21.20;99.90
28189;DHT22;15471;51.166;4.470;2022-07-23T08:40:26;21.40;99.90
28189;DHT22;15471;51.166;4.470;2022-07-23T08:42:52;21.60;99.90
28189;DHT22;15471;51.166;4.470;2022-07-23T08:45:19;21.80;99.90
28189;DHT22;15471;51.166;4.470;2022-07-23T08:47:49;21.90;99.90
28189;DHT22;15471;51.166;4.470;2022-07-23T08:50:15;23.00;99.90
28189;DHT22;15471;51.166;4.470;2022-07-23T08:52:41;25.10;99.90
28189;DHT22;15471;51.166;4.470;2022-07-23T08:55:08;26.50;99.90
28189;DHT22;15471;51.166;4.470;2022-07-23T08:57:34;28.50;99.90
28189;DHT22;15471;51.166;4.470;2022-07-23T09:00:00;29.70;99.90
28189;DHT22;15471;51.166;4.470;2022-07-23T09:02:26;30.60;99.10
28189;DHT22;15471;51.166;4.470;2022-07-23T09:04:51;31.10;94.60
28189;DHT22;15471;51.166;4.470;2022-07-23T09:07:18;31.90;90.90
28189;DHT22;15471;51.166;4.470;2022-07-23T09:09:43;32.30;84.80
28189;DHT22;15471;51.166;4.470;2022-07-23T09:12:10;32.90;81.10
28189;DHT22;15471;51.166;4.470;2022-07-23T09:14:44;33.80;79.40
28189;DHT22;15471;51.166;4.470;2022-07-23T09:17:18;34.70;71.30
28189;DHT22;15471;51.166;4.470;2022-07-23T09:19:45;34.70;62.30
28189;DHT22;15471;51.166;4.470;2022-07-23T09:22:25;35.40;65.70
28189;DHT22;15471;51.166;4.470;2022-07-23T09:27:52;35.90;58.70
28189;DHT22;15471;51.166;4.470;2022-07-23T09:30:20;34.50;56.10
28189;DHT22;15471;51.166;4.470;2022-07-23T09:33:07;34.30;57.10
28189;DHT22;15471;51.166;4.470;2022-07-23T09:35:53;33.40;57.80
28189;DHT22;15471;51.166;4.470;2022-07-23T09:38:21;33.00;57.90
28189;DHT22;15471;51.166;4.470;2022-07-23T09:41:08;32.80;60.60
28189;DHT22;15471;51.166;4.470;2022-07-23T09:43:34;33.20;58.20
28189;DHT22;15471;51.166;4.470;2022-07-23T09:46:19;33.20;56.70
28189;DHT22;15471;51.166;4.470;2022-07-23T09:48:46;31.60;59.90
28189;DHT22;15471;51.166;4.470;2022-07-23T09:51:12;29.60;67.00
28189;DHT22;15471;51.166;4.470;2022-07-23T09:53:41;29.50;69.40
28189;DHT22;15471;51.166;4.470;2022-07-23T09:56:08;29.40;70.20
28189;DHT22;15471;51.166;4.470;2022-07-23T09:58:36;30.40;66.40
28189;DHT22;15471;51.166;4.470;2022-07-23T10:01:09;31.20;65.90
28189;DHT22;15471;51.166;4.470;2022-07-23T10:03:36;31.10;66.80
28189;DHT22;15471;51.166;4.470;2022-07-23T10:06:34;30.50;65.00
28189;DHT22;15471;51.166;4.470;2022-07-23T10:09:25;29.90;67.90
28189;DHT22;15471;51.166;4.470;2022-07-23T10:12:14;29.10;68.60
28189;DHT22;15471;51.166;4.470;2022-07-23T10:14:57;29.00;73.20
28189;DHT22;15471;51.166;4.470;2022-07-23T10:17:23;29.00;73.60
28189;DHT22;15471;51.166;4.470;2022-07-23T10:19:48;28.50;71.40
28189;DHT22;15471;51.166;4.470;2022-07-23T10:22:26;27.40;72.60
28189;DHT22;15471;51.166;4.470;2022-07-23T10:25:18;27.40;79.00
28189;DHT22;15471;51.166;4.470;2022-07-23T10:27:55;27.90;78.70
28189;DHT22;15471;51.166;4.470;2022-07-23T10:33:23;28.60;76.70
28189;DHT22;15471;51.166;4.470;2022-07-23T10:36:09;29.10;68.00
28189;DHT22;15471;51.166;4.470;2022-07-23T10:38:52;29.20;65.40
28189;DHT22;15471;51.166;4.470;2022-07-23T10:41:40;29.10;67.70
28189;DHT22;15471;51.166;4.470;2022-07-23T10:44:14;28.90;71.40
28189;DHT22;15471;51.166;4.470;2022-07-23T10:47:06;28.40;69.70
28189;DHT22;15471;51.166;4.470;2022-07-23T10:49:36;28.60;68.60
28189;DHT22;15471;51.166;4.470;2022-07-23T10:57:28;27.10;78.80
28189;DHT22;15471;51.166;4.470;2022-07-23T11:02:35;25.80;81.00
28189;DHT22;15471;51.166;4.470;2022-07-23T11:05:11;25.00;84.70
28189;DHT22;15471;51.166;4.470;2022-07-23T11:24:00;25.40;85.30
28189;DHT22;15471;51.166;4.470;2022-07-23T11:34:29;25.60;82.00
28189;DHT22;15471;51.166;4.470;2022-07-23T11:36:55;25.80;82.70
28189;DHT22;15471;51.166;4.470;2022-07-23T11:39:21;25.90;79.80
28189;DHT22;15471;51.166;4.470;2022-07-23T11:41:53;25.90;82.40
28189;DHT22;15471;51.166;4.470;2022-07-23T11:44:29;26.10;81.30
28189;DHT22;15471;51.166;4.470;2022-07-23T11:47:06;26.20;80.50
28189;DHT22;15471;51.166;4.470;2022-07-23T11:49:33;26.20;80.30
28189;DHT22;15471;51.166;4.470;2022-07-23T11:52:15;26.20;74.40
28189;DHT22;15471;51.166;4.470;2022-07-23T11:54:53;26.20;78.90
28189;DHT22;15471;51.166;4.470;2022-07-23T11:57:21;26.00;78.00
28189;DHT22;15471;51.166;4.470;2022-07-23T11:59:53;25.80;78.70
28189;DHT22;15471;51.166;4.470;2022-07-23T12:02:21;25.40;82.40
28189;DHT22;15471;51.166;4.470;2022-07-23T12:04:49;25.60;78.50
28189;DHT22;15471;51.166;4.470;2022-07-23T12:07:29;25.70;80.30
28189;DHT22;15471;51.166;4.470;2022-07-23T12:09:57;25.90;77.80
28189;DHT22;15471;51.166;4.470;2022-07-23T12:12:23;25.60;77.40
28189;DHT22;15471;51.166;4.470;2022-07-23T12:14:53;25.60;79.30
28189;DHT22;15471;51.166;4.470;2022-07-23T12:17:24;25.80;76.60
28189;DHT22;15471;51.166;4.470;2022-07-23T12:19:52;25.90;79.30
28189;DHT22;15471;51.166;4.470;2022-07-23T12:22:18;26.10;77.60
28189;DHT22;15471;51.166;4.470;2022-07-23T12:25:06;26.20;79.30
28189;DHT22;15471;51.166;4.470;2022-07-23T12:27:32;26.50;74.30
28189;DHT22;15471;51.166;4.470;2022-07-23T12:29:58;26.60;73.50
28189;DHT22;15471;51.166;4.470;2022-07-23T12:32:26;26.30;76.30
28189;DHT22;15471;51.166;4.470;2022-07-23T12:35:07;26.30;78.00
28189;DHT22;15471;51.166;4.470;2022-07-23T12:37:38;26.50;74.90
28189;DHT22;15471;51.166;4.470;2022-07-23T12:40:27;26.40;78.80
28189;DHT22;15471;51.166;4.470;2022-07-23T12:43:05;26.50;78.10
28189;DHT22;15471;51.166;4.470;2022-07-23T12:45:46;26.70;79.70
28189;DHT22;15471;51.166;4.470;2022-07-23T12:50:53;27.20;74.70
28189;DHT22;15471;51.166;4.470;2022-07-23T12:53:40;27.20;76.40
28189;DHT22;15471;51.166;4.470;2022-07-23T12:56:10;26.90;76.70
28189;DHT22;15471;51.166;4.470;2022-07-23T12:58:53;26.30;75.30
28189;DHT22;15471;51.166;4.470;2022-07-23T13:04:05;25.70;78.70
28189;DHT22;15471;51.166;4.470;2022-07-23T13:06:35;25.60;81.80
28189;DHT22;15471;51.166;4.470;2022-07-23T13:09:04;26.10;76.10
28189;DHT22;15471;51.166;4.470;2022-07-23T13:11:31;26.60;73.20
28189;DHT22;15471;51.166;4.470;2022-07-23T13:13:57;26.90;74.30
28189;DHT22;15471;51.166;4.470;2022-07-23T13:16:23;27.10;74.70
28189;DHT22;15471;51.166;4.470;2022-07-23T13:18:49;27.10;74.80
28189;DHT22;15471;51.166;4.470;2022-07-23T13:21:15;27.40;74.80
28189;DHT22;15471;51.166;4.470;2022-07-23T13:23:42;27.40;72.60
28189;DHT22;15471;51.166;4.470;2022-07-23T13:26:07;27.10;73.90
28189;DHT22;15471;51.166;4.470;2022-07-23T13:28:34;27.20;74.00
28189;DHT22;15471;51.166;4.470;2022-07-23T13:30:59;27.60;74.70
28189;DHT22;15471;51.166;4.470;2022-07-23T13:33:25;28.00;73.80
28189;DHT22;15471;51.166;4.470;2022-07-23T13:35:52;28.50;73.50
28189;DHT22;15471;51.166;4.470;2022-07-23T13:38:19;28.90;70.40
28189;DHT22;15471;51.166;4.470;2022-07-23T13:40:47;28.90;68.50
28189;DHT22;15471;51.166;4.470;2022-07-23T13:43:16;28.90;69.90
28189;DHT22;15471;51.166;4.470;2022-07-23T13:45:42;28.50;67.40
28189;DHT22;15471;51.166;4.470;2022-07-23T13:48:10;28.40;67.30
28189;DHT22;15471;51.166;4.470;2022-07-23T13:50:37;28.30;69.50
28189;DHT22;15471;51.166;4.470;2022-07-23T13:53:05;28.60;70.10
28189;DHT22;15471;51.166;4.470;2022-07-23T13:55:32;28.70;69.40
28189;DHT22;15471;51.166;4.470;2022-07-23T13:57:58;28.70;68.20
28189;DHT22;15471;51.166;4.470;2022-07-23T14:00:25;28.60;70.60
28189;DHT22;15471;51.166;4.470;2022-07-23T14:02:52;28.40;69.80
28189;DHT22;15471;51.166;4.470;2022-07-23T14:05:18;28.50;70.30
28189;DHT22;15471;51.166;4.470;2022-07-23T14:07:44;28.10;67.80
28189;DHT22;15471;51.166;4.470;2022-07-23T14:10:12;27.70;67.90
28189;DHT22;15471;51.166;4.470;2022-07-23T14:12:38;27.40;68.70
28189;DHT22;15471;51.166;4.470;2022-07-23T14:15:05;27.30;72.40
28189;DHT22;15471;51.166;4.470;2022-07-23T14:17:32;27.70;73.10
28189;DHT22;15471;51.166;4.470;2022-07-23T14:19:58;27.80;68.90
28189;DHT22;15471;51.166;4.470;2022-07-23T14:22:24;27.80;69.00
28189;DHT22;15471;51.166;4.470;2022-07-23T14:24:50;28.30;71.50
28189;DHT22;15471;51.166;4.470;2022-07-23T14:27:16;28.70;68.90
28189;DHT22;15471;51.166;4.470;2022-07-23T14:29:42;29.10;68.90
28189;DHT22;15471;51.166;4.470;2022-07-23T14:32:08;29.40;69.10
28189;DHT22;15471;51.166;4.470;2022-07-23T14:34:34;29.70;68.00
28189;DHT22;15471;51.166;4.470;2022-07-23T14:37:01;29.90;69.10
28189;DHT22;15471;51.166;4.470;2022-07-23T14:39:27;30.20;69.20
28189;DHT22;15471;51.166;4.470;2022-07-23T14:41:53;30.30;67.00
28189;DHT22;15471;51.166;4.470;2022-07-23T14:44:18;30.30;66.20
28189;DHT22;15471;51.166;4.470;2022-07-23T14:46:44;30.20;64.50
28189;DHT22;15471;51.166;4.470;2022-07-23T14:49:11;30.40;65.90
28189;DHT22;15471;51.166;4.470;2022-07-23T14:51:37;30.60;65.50
28189;DHT22;15471;51.166;4.470;2022-07-23T14:54:04;30.30;65.10
28189;DHT22;15471;51.166;4.470;2022-07-23T14:56:30;29.40;66.10
28189;DHT22;15471;51.166;4.470;2022-07-23T14:58:56;29.20;66.60
28189;DHT22;15471;51.166;4.470;2022-07-23T15:01:22;29.20;69.30
28189;DHT22;15471;51.166;4.470;2022-07-23T15:03:49;29.00;67.50
28189;DHT22;15471;51.166;4.470;2022-07-23T15:06:16;28.40;68.70
28189;DHT22;15471;51.166;4.470;2022-07-23T15:08:42;28.30;72.60
28189;DHT22;15471;51.166;4.470;2022-07-23T15:11:08;28.50;69.90
28189;DHT22;15471;51.166;4.470;2022-07-23T15:13:35;28.50;73.00
28189;DHT22;15471;51.166;4.470;2022-07-23T15:16:03;28.30;69.20
28189;DHT22;15471;51.166;4.470;2022-07-23T15:18:29;28.10;73.10
28189;DHT22;15471;51.166;4.470;2022-07-23T15:20:55;28.20;72.80
28189;DHT22;15471;51.166;4.470;2022-07-23T15:23:21;28.30;71.10
28189;DHT22;15471;51.166;4.470;2022-07-23T15:25:47;28.80;70.50
28189;DHT22;15471;51.166;4.470;2022-07-23T15:28:13;30.60;70.90
28189;DHT22;15471;51.166;4.470;2022-07-23T15:30:39;33.00;59.50
28189;DHT22;15471;51.166;4.470;2022-07-23T15:33:05;34.50;58.20
28189;DHT22;15471;51.166;4.470;2022-07-23T15:35:31;36.60;55.90
28189;DHT22;15471;51.166;4.470;2022-07-23T15:37:58;37.50;50.50
28189;DHT22;15471;51.166;4.470;2022-07-23T15:40:24;36.40;52.40
28189;DHT22;15471;51.166;4.470;2022-07-23T15:42:50;36.60;51.90
28189;DHT22;15471;51.166;4.470;2022-07-23T15:45:16;37.70;51.50
28189;DHT22;15471;51.166;4.470;2022-07-23T15:47:42;39.00;48.90
28189;DHT22;15471;51.166;4.470;2022-07-23T15:50:09;39.00;45.90
28189;DHT22;15471;51.166;4.470;2022-07-23T15:52:35;38.20;47.30
28189;DHT22;15471;51.166;4.470;2022-07-23T15:55:02;37.70;47.60
28189;DHT22;15471;51.166;4.470;2022-07-23T15:57:28;38.20;48.60
28189;DHT22;15471;51.166;4.470;2022-07-23T15:59:54;40.10;47.30
28189;DHT22;15471;51.166;4.470;2022-07-23T16:02:22;42.20;45.00
28189;DHT22;15471;51.166;4.470;2022-07-23T16:04:49;42.90;41.80
28189;DHT22;15471;51.166;4.470;2022-07-23T16:07:17;43.70;40.80
28189;DHT22;15471;51.166;4.470;2022-07-23T16:09:43;43.70;40.80
28189;DHT22;15471;51.166;4.470;2022-07-23T16:12:09;44.10;40.20
28189;DHT22;15471;51.166;4.470;2022-07-23T16:14:35;44.60;38.00
28189;DHT22;15471;51.166;4.470;2022-07-23T16:17:01;46.00;37.20
28189;DHT22;15471;51.166;4.470;2022-07-23T16:19:27;46.80;35.60
28189;DHT22;15471;51.166;4.470;2022-07-23T16:21:53;47.20;34.40
28189;DHT22;15471;51.166;4.470;2022-07-23T16:24:18;45.30;34.00